Terminal Aerodrome Forecast
Issued by NWS

Home | Current Version | Previous Version | Text Only | Print | Product List | Glossary On
Versions: 1 2 3 4 5 6 7 8 9 10 11 12 13 14 15 16 17 18 19 20
229
FTUS43 KOAX 280216 AAB
TAFCDR
TAF AMD
KCDR 280216Z 2802/2824 15015G25KT P6SM VCTS SCT050CB BKN100
      TEMPO 2802/2804 VRB20G35KT 1SM TSRA BKN040CB OVC100
     FM280400 15015KT P6SM SCT070 BKN100
      AMD NOT SKED=

USA.gov is the U.S. government's official web portal to all federal, state and local government web resources and services.